sensor_id;sensor_type;location;lat;lon;timestamp;P1;durP1;ratioP1;P2;durP2;ratioP2
53927;SDS011;39837;47.630;18.822;2023-02-03T00:02:26;1.23;;;1.23;;
53927;SDS011;39837;47.630;18.822;2023-02-03T00:05:10;7.63;;;2.88;;
53927;SDS011;39837;47.630;18.822;2023-02-03T00:07:54;1.38;;;1.38;;
53927;SDS011;39837;47.630;18.822;2023-02-03T00:10:38;3.30;;;2.85;;
53927;SDS011;39837;47.630;18.822;2023-02-03T00:13:23;18.70;;;1.75;;
53927;SDS011;39837;47.630;18.822;2023-02-03T00:16:08;2.55;;;1.27;;
53927;SDS011;39837;47.630;18.822;2023-02-03T00:18:52;2.53;;;1.67;;
53927;SDS011;39837;47.630;18.822;2023-02-03T00:21:36;1.70;;;1.60;;
53927;SDS011;39837;47.630;18.822;2023-02-03T00:24:20;2.60;;;2.10;;
53927;SDS011;39837;47.630;18.822;2023-02-03T00:27:06;1.33;;;1.23;;
53927;SDS011;39837;47.630;18.822;2023-02-03T00:29:50;1.40;;;1.30;;
53927;SDS011;39837;47.630;18.822;2023-02-03T00:32:34;1.48;;;1.42;;
53927;SDS011;39837;47.630;18.822;2023-02-03T00:35:17;4.93;;;1.73;;
53927;SDS011;39837;47.630;18.822;2023-02-03T00:38:01;4.45;;;1.42;;
53927;SDS011;39837;47.630;18.822;2023-02-03T00:40:52;2.35;;;2.15;;
53927;SDS011;39837;47.630;18.822;2023-02-03T00:43:36;4.05;;;1.65;;
53927;SDS011;39837;47.630;18.822;2023-02-03T00:46:20;3.25;;;1.73;;
53927;SDS011;39837;47.630;18.822;2023-02-03T00:49:04;2.80;;;2.30;;
53927;SDS011;39837;47.630;18.822;2023-02-03T00:51:49;1.67;;;1.60;;
53927;SDS011;39837;47.630;18.822;2023-02-03T00:54:33;1.77;;;1.67;;
53927;SDS011;39837;47.630;18.822;2023-02-03T00:57:17;1.73;;;1.63;;
53927;SDS011;39837;47.630;18.822;2023-02-03T01:00:02;0.93;;;0.93;;
53927;SDS011;39837;47.630;18.822;2023-02-03T01:02:46;1.10;;;1.10;;
53927;SDS011;39837;47.630;18.822;2023-02-03T01:05:31;1.52;;;1.45;;
53927;SDS011;39837;47.630;18.822;2023-02-03T01:08:15;1.38;;;1.15;;
53927;SDS011;39837;47.630;18.822;2023-02-03T01:10:58;1.92;;;1.83;;
53927;SDS011;39837;47.630;18.822;2023-02-03T01:13:49;1.75;;;1.65;;
53927;SDS011;39837;47.630;18.822;2023-02-03T01:16:33;1.08;;;1.08;;
53927;SDS011;39837;47.630;18.822;2023-02-03T01:19:21;1.65;;;1.45;;
53927;SDS011;39837;47.630;18.822;2023-02-03T01:22:05;1.30;;;1.30;;
53927;SDS011;39837;47.630;18.822;2023-02-03T01:24:49;2.72;;;1.40;;
53927;SDS011;39837;47.630;18.822;2023-02-03T01:27:33;1.63;;;1.52;;
53927;SDS011;39837;47.630;18.822;2023-02-03T01:30:17;1.40;;;1.40;;
53927;SDS011;39837;47.630;18.822;2023-02-03T01:33:01;1.67;;;1.58;;
53927;SDS011;39837;47.630;18.822;2023-02-03T01:35:45;1.20;;;1.15;;
53927;SDS011;39837;47.630;18.822;2023-02-03T01:38:29;3.85;;;1.30;;
53927;SDS011;39837;47.630;18.822;2023-02-03T01:41:15;1.02;;;1.02;;
53927;SDS011;39837;47.630;18.822;2023-02-03T01:44:01;1.33;;;1.33;;
53927;SDS011;39837;47.630;18.822;2023-02-03T01:47:10;5.15;;;1.92;;
53927;SDS011;39837;47.630;18.822;2023-02-03T01:50:00;2.00;;;1.90;;
53927;SDS011;39837;47.630;18.822;2023-02-03T01:53:03;1.95;;;1.42;;
53927;SDS011;39837;47.630;18.822;2023-02-03T01:55:49;2.60;;;1.92;;
53927;SDS011;39837;47.630;18.822;2023-02-03T01:58:35;1.85;;;1.75;;
53927;SDS011;39837;47.630;18.822;2023-02-03T02:01:21;2.53;;;2.33;;
53927;SDS011;39837;47.630;18.822;2023-02-03T02:04:05;1.77;;;1.48;;
53927;SDS011;39837;47.630;18.822;2023-02-03T02:06:49;1.75;;;1.65;;
53927;SDS011;39837;47.630;18.822;2023-02-03T02:09:34;1.77;;;1.77;;
53927;SDS011;39837;47.630;18.822;2023-02-03T02:12:18;1.20;;;1.20;;
53927;SDS011;39837;47.630;18.822;2023-02-03T02:15:02;2.38;;;1.50;;
53927;SDS011;39837;47.630;18.822;2023-02-03T02:17:51;1.50;;;1.45;;
53927;SDS011;39837;47.630;18.822;2023-02-03T02:20:46;1.48;;;1.42;;
53927;SDS011;39837;47.630;18.822;2023-02-03T02:27:05;1.48;;;1.48;;
53927;SDS011;39837;47.630;18.822;2023-02-03T02:33:07;1.60;;;1.50;;
53927;SDS011;39837;47.630;18.822;2023-02-03T02:36:02;7.82;;;1.73;;
53927;SDS011;39837;47.630;18.822;2023-02-03T02:38:58;1.15;;;1.13;;
53927;SDS011;39837;47.630;18.822;2023-02-03T02:41:56;4.28;;;2.17;;
53927;SDS011;39837;47.630;18.822;2023-02-03T02:44:44;4.28;;;1.55;;
53927;SDS011;39837;47.630;18.822;2023-02-03T02:47:33;9.77;;;2.28;;
53927;SDS011;39837;47.630;18.822;2023-02-03T02:50:22;2.25;;;2.10;;
53927;SDS011;39837;47.630;18.822;2023-02-03T02:53:07;1.55;;;1.50;;
53927;SDS011;39837;47.630;18.822;2023-02-03T02:55:52;2.65;;;1.80;;
53927;SDS011;39837;47.630;18.822;2023-02-03T02:58:40;1.83;;;1.67;;
53927;SDS011;39837;47.630;18.822;2023-02-03T03:04:09;1.65;;;1.55;;
53927;SDS011;39837;47.630;18.822;2023-02-03T03:06:57;1.60;;;1.55;;
53927;SDS011;39837;47.630;18.822;2023-02-03T03:09:45;1.25;;;1.25;;
53927;SDS011;39837;47.630;18.822;2023-02-03T03:12:35;1.77;;;1.77;;
53927;SDS011;39837;47.630;18.822;2023-02-03T03:15:22;2.03;;;1.92;;
53927;SDS011;39837;47.630;18.822;2023-02-03T03:18:16;1.30;;;1.27;;
53927;SDS011;39837;47.630;18.822;2023-02-03T03:21:12;3.60;;;1.50;;
53927;SDS011;39837;47.630;18.822;2023-02-03T03:24:00;1.92;;;1.75;;
53927;SDS011;39837;47.630;18.822;2023-02-03T03:29:42;1.80;;;1.65;;
53927;SDS011;39837;47.630;18.822;2023-02-03T03:32:33;3.13;;;2.28;;
53927;SDS011;39837;47.630;18.822;2023-02-03T03:35:17;2.13;;;2.03;;
53927;SDS011;39837;47.630;18.822;2023-02-03T03:38:06;2.75;;;2.20;;
53927;SDS011;39837;47.630;18.822;2023-02-03T03:40:57;1.48;;;1.48;;
53927;SDS011;39837;47.630;18.822;2023-02-03T03:43:50;3.83;;;2.92;;
53927;SDS011;39837;47.630;18.822;2023-02-03T03:47:18;3.65;;;3.10;;
53927;SDS011;39837;47.630;18.822;2023-02-03T03:50:02;7.55;;;2.60;;
53927;SDS011;39837;47.630;18.822;2023-02-03T03:52:49;5.47;;;3.92;;
53927;SDS011;39837;47.630;18.822;2023-02-03T03:55:34;4.30;;;3.33;;
53927;SDS011;39837;47.630;18.822;2023-02-03T03:58:23;7.35;;;4.40;;
53927;SDS011;39837;47.630;18.822;2023-02-03T04:01:09;9.80;;;6.07;;
53927;SDS011;39837;47.630;18.822;2023-02-03T04:03:56;13.93;;;8.32;;
53927;SDS011;39837;47.630;18.822;2023-02-03T04:06:42;18.60;;;10.35;;
53927;SDS011;39837;47.630;18.822;2023-02-03T04:09:26;17.33;;;8.75;;
53927;SDS011;39837;47.630;18.822;2023-02-03T04:12:22;25.85;;;11.93;;
53927;SDS011;39837;47.630;18.822;2023-02-03T04:15:06;9.75;;;7.00;;
53927;SDS011;39837;47.630;18.822;2023-02-03T04:17:51;5.07;;;4.15;;
53927;SDS011;39837;47.630;18.822;2023-02-03T04:20:35;15.30;;;7.78;;
53927;SDS011;39837;47.630;18.822;2023-02-03T04:23:18;23.63;;;12.43;;
53927;SDS011;39837;47.630;18.822;2023-02-03T04:26:02;3.40;;;3.20;;
53927;SDS011;39837;47.630;18.822;2023-02-03T04:28:47;2.08;;;1.95;;
53927;SDS011;39837;47.630;18.822;2023-02-03T04:31:31;4.63;;;3.58;;
53927;SDS011;39837;47.630;18.822;2023-02-03T04:34:15;4.32;;;4.00;;
53927;SDS011;39837;47.630;18.822;2023-02-03T04:36:59;9.40;;;7.13;;
53927;SDS011;39837;47.630;18.822;2023-02-03T04:39:43;6.85;;;5.47;;
53927;SDS011;39837;47.630;18.822;2023-02-03T04:42:27;6.70;;;5.00;;
53927;SDS011;39837;47.630;18.822;2023-02-03T04:45:11;2.40;;;2.30;;
53927;SDS011;39837;47.630;18.822;2023-02-03T04:47:55;2.53;;;2.40;;
53927;SDS011;39837;47.630;18.822;2023-02-03T04:50:39;2.53;;;2.00;;
53927;SDS011;39837;47.630;18.822;2023-02-03T04:53:23;2.28;;;2.03;;
53927;SDS011;39837;47.630;18.822;2023-02-03T04:56:07;2.80;;;2.55;;
53927;SDS011;39837;47.630;18.822;2023-02-03T04:58:51;11.52;;;2.40;;
53927;SDS011;39837;47.630;18.822;2023-02-03T05:01:36;2.72;;;2.08;;
53927;SDS011;39837;47.630;18.822;2023-02-03T05:04:20;3.95;;;2.13;;
53927;SDS011;39837;47.630;18.822;2023-02-03T05:07:04;1.85;;;1.58;;
53927;SDS011;39837;47.630;18.822;2023-02-03T05:09:48;2.13;;;2.03;;
53927;SDS011;39837;47.630;18.822;2023-02-03T05:12:32;3.58;;;3.13;;
53927;SDS011;39837;47.630;18.822;2023-02-03T05:15:16;2.95;;;2.65;;
53927;SDS011;39837;47.630;18.822;2023-02-03T05:18:00;2.60;;;2.38;;
53927;SDS011;39837;47.630;18.822;2023-02-03T05:20:44;6.18;;;3.35;;
53927;SDS011;39837;47.630;18.822;2023-02-03T05:23:28;1.80;;;1.70;;
53927;SDS011;39837;47.630;18.822;2023-02-03T05:26:12;2.92;;;2.13;;
53927;SDS011;39837;47.630;18.822;2023-02-03T05:28:56;2.78;;;2.58;;
53927;SDS011;39837;47.630;18.822;2023-02-03T05:31:40;6.63;;;3.58;;
53927;SDS011;39837;47.630;18.822;2023-02-03T05:34:24;7.70;;;5.32;;
53927;SDS011;39837;47.630;18.822;2023-02-03T05:37:08;5.63;;;4.20;;
53927;SDS011;39837;47.630;18.822;2023-02-03T05:39:52;6.18;;;3.33;;
53927;SDS011;39837;47.630;18.822;2023-02-03T05:42:36;3.75;;;3.45;;
53927;SDS011;39837;47.630;18.822;2023-02-03T05:45:20;5.50;;;4.03;;
53927;SDS011;39837;47.630;18.822;2023-02-03T05:48:04;4.38;;;3.22;;
53927;SDS011;39837;47.630;18.822;2023-02-03T05:50:49;7.50;;;4.85;;
53927;SDS011;39837;47.630;18.822;2023-02-03T05:53:33;2.55;;;2.33;;
53927;SDS011;39837;47.630;18.822;2023-02-03T05:56:17;3.22;;;2.35;;
53927;SDS011;39837;47.630;18.822;2023-02-03T05:59:01;4.60;;;2.85;;
53927;SDS011;39837;47.630;18.822;2023-02-03T06:01:46;3.35;;;2.38;;
53927;SDS011;39837;47.630;18.822;2023-02-03T06:04:29;2.80;;;2.60;;
53927;SDS011;39837;47.630;18.822;2023-02-03T06:07:14;3.90;;;2.30;;
53927;SDS011;39837;47.630;18.822;2023-02-03T06:09:58;6.65;;;4.63;;
53927;SDS011;39837;47.630;18.822;2023-02-03T06:12:41;8.20;;;3.85;;
53927;SDS011;39837;47.630;18.822;2023-02-03T06:15:26;3.60;;;3.33;;
53927;SDS011;39837;47.630;18.822;2023-02-03T06:18:10;3.40;;;3.15;;
53927;SDS011;39837;47.630;18.822;2023-02-03T06:20:54;5.32;;;4.20;;
53927;SDS011;39837;47.630;18.822;2023-02-03T06:23:38;5.85;;;4.18;;
53927;SDS011;39837;47.630;18.822;2023-02-03T06:26:22;9.38;;;2.72;;
53927;SDS011;39837;47.630;18.822;2023-02-03T06:29:08;4.30;;;3.20;;
53927;SDS011;39837;47.630;18.822;2023-02-03T06:31:52;6.68;;;4.20;;
53927;SDS011;39837;47.630;18.822;2023-02-03T06:34:36;2.67;;;2.47;;
53927;SDS011;39837;47.630;18.822;2023-02-03T06:37:20;13.48;;;4.35;;
53927;SDS011;39837;47.630;18.822;2023-02-03T06:40:05;2.47;;;2.30;;
53927;SDS011;39837;47.630;18.822;2023-02-03T06:42:49;3.92;;;3.42;;
53927;SDS011;39837;47.630;18.822;2023-02-03T06:45:34;3.13;;;2.28;;
53927;SDS011;39837;47.630;18.822;2023-02-03T06:48:18;3.22;;;3.00;;
53927;SDS011;39837;47.630;18.822;2023-02-03T06:51:02;2.38;;;2.28;;
53927;SDS011;39837;47.630;18.822;2023-02-03T06:53:48;1.60;;;1.50;;
53927;SDS011;39837;47.630;18.822;2023-02-03T06:56:32;3.03;;;2.70;;
53927;SDS011;39837;47.630;18.822;2023-02-03T06:59:16;1.55;;;1.55;;
53927;SDS011;39837;47.630;18.822;2023-02-03T07:02:01;3.97;;;3.67;;
53927;SDS011;39837;47.630;18.822;2023-02-03T07:04:45;2.08;;;2.00;;
53927;SDS011;39837;47.630;18.822;2023-02-03T07:07:29;2.55;;;2.38;;
53927;SDS011;39837;47.630;18.822;2023-02-03T07:10:15;4.18;;;2.30;;
53927;SDS011;39837;47.630;18.822;2023-02-03T07:13:03;5.22;;;3.10;;
53927;SDS011;39837;47.630;18.822;2023-02-03T07:15:47;4.88;;;3.83;;
53927;SDS011;39837;47.630;18.822;2023-02-03T07:18:31;2.50;;;2.30;;
53927;SDS011;39837;47.630;18.822;2023-02-03T07:21:15;3.15;;;2.90;;
53927;SDS011;39837;47.630;18.822;2023-02-03T07:24:00;2.67;;;2.58;;
53927;SDS011;39837;47.630;18.822;2023-02-03T07:26:45;3.95;;;2.42;;
53927;SDS011;39837;47.630;18.822;2023-02-03T07:29:30;7.10;;;3.28;;
53927;SDS011;39837;47.630;18.822;2023-02-03T07:32:14;4.10;;;3.33;;
53927;SDS011;39837;47.630;18.822;2023-02-03T07:34:58;14.95;;;4.93;;
53927;SDS011;39837;47.630;18.822;2023-02-03T07:37:44;6.45;;;5.28;;
53927;SDS011;39837;47.630;18.822;2023-02-03T07:40:28;8.20;;;4.38;;
53927;SDS011;39837;47.630;18.822;2023-02-03T07:43:12;9.52;;;3.85;;
53927;SDS011;39837;47.630;18.822;2023-02-03T07:45:56;6.18;;;2.33;;
53927;SDS011;39837;47.630;18.822;2023-02-03T07:48:40;6.38;;;2.50;;
53927;SDS011;39837;47.630;18.822;2023-02-03T07:51:24;2.55;;;2.40;;
53927;SDS011;39837;47.630;18.822;2023-02-03T07:54:09;2.13;;;2.03;;
53927;SDS011;39837;47.630;18.822;2023-02-03T07:56:53;2.83;;;2.53;;
53927;SDS011;39837;47.630;18.822;2023-02-03T07:59:37;3.55;;;3.22;;
53927;SDS011;39837;47.630;18.822;2023-02-03T08:02:21;2.45;;;2.30;;
53927;SDS011;39837;47.630;18.822;2023-02-03T08:05:05;5.03;;;3.38;;
53927;SDS011;39837;47.630;18.822;2023-02-03T08:07:49;4.82;;;4.25;;
53927;SDS011;39837;47.630;18.822;2023-02-03T08:10:33;2.42;;;2.30;;
53927;SDS011;39837;47.630;18.822;2023-02-03T08:13:18;2.55;;;2.40;;
53927;SDS011;39837;47.630;18.822;2023-02-03T08:16:01;2.08;;;1.98;;
53927;SDS011;39837;47.630;18.822;2023-02-03T08:18:46;1.83;;;1.60;;
53927;SDS011;39837;47.630;18.822;2023-02-03T08:21:30;4.78;;;2.53;;
53927;SDS011;39837;47.630;18.822;2023-02-03T08:24:14;2.28;;;2.08;;
53927;SDS011;39837;47.630;18.822;2023-02-03T08:26:59;3.13;;;2.88;;
53927;SDS011;39837;47.630;18.822;2023-02-03T08:29:43;3.90;;;3.08;;
53927;SDS011;39837;47.630;18.822;2023-02-03T08:32:28;1.48;;;1.35;;
53927;SDS011;39837;47.630;18.822;2023-02-03T08:35:12;2.28;;;2.17;;
53927;SDS011;39837;47.630;18.822;2023-02-03T08:37:56;2.42;;;2.28;;
53927;SDS011;39837;47.630;18.822;2023-02-03T08:40:40;1.65;;;1.55;;
53927;SDS011;39837;47.630;18.822;2023-02-03T08:43:24;1.55;;;1.45;;
53927;SDS011;39837;47.630;18.822;2023-02-03T08:46:09;1.10;;;1.10;;
53927;SDS011;39837;47.630;18.822;2023-02-03T08:48:54;2.47;;;1.60;;
53927;SDS011;39837;47.630;18.822;2023-02-03T08:51:42;1.00;;;1.00;;
53927;SDS011;39837;47.630;18.822;2023-02-03T08:54:27;1.17;;;1.17;;
53927;SDS011;39837;47.630;18.822;2023-02-03T08:57:11;2.70;;;2.30;;
53927;SDS011;39837;47.630;18.822;2023-02-03T08:59:56;4.50;;;2.30;;
53927;SDS011;39837;47.630;18.822;2023-02-03T09:02:40;2.42;;;2.22;;
53927;SDS011;39837;47.630;18.822;2023-02-03T09:05:23;5.45;;;3.42;;
53927;SDS011;39837;47.630;18.822;2023-02-03T09:08:07;4.07;;;2.65;;
53927;SDS011;39837;47.630;18.822;2023-02-03T09:10:51;1.70;;;1.70;;
53927;SDS011;39837;47.630;18.822;2023-02-03T09:13:36;5.97;;;2.97;;
53927;SDS011;39837;47.630;18.822;2023-02-03T09:16:21;3.05;;;2.80;;
53927;SDS011;39837;47.630;18.822;2023-02-03T09:19:05;2.50;;;2.30;;
53927;SDS011;39837;47.630;18.822;2023-02-03T09:21:49;3.50;;;2.88;;
53927;SDS011;39837;47.630;18.822;2023-02-03T09:24:33;3.15;;;2.92;;
53927;SDS011;39837;47.630;18.822;2023-02-03T09:27:17;3.15;;;2.85;;
53927;SDS011;39837;47.630;18.822;2023-02-03T09:30:01;4.15;;;3.17;;
53927;SDS011;39837;47.630;18.822;2023-02-03T09:32:46;3.20;;;2.90;;
53927;SDS011;39837;47.630;18.822;2023-02-03T09:35:31;6.28;;;3.38;;
53927;SDS011;39837;47.630;18.822;2023-02-03T09:38:15;3.38;;;3.08;;
53927;SDS011;39837;47.630;18.822;2023-02-03T09:41:11;7.88;;;3.80;;
53927;SDS011;39837;47.630;18.822;2023-02-03T09:46:46;2.30;;;2.20;;
53927;SDS011;39837;47.630;18.822;2023-02-03T09:49:40;3.25;;;2.38;;
53927;SDS011;39837;47.630;18.822;2023-02-03T09:58:24;2.85;;;2.65;;
53927;SDS011;39837;47.630;18.822;2023-02-03T10:01:15;3.28;;;2.67;;
53927;SDS011;39837;47.630;18.822;2023-02-03T10:04:01;2.70;;;2.50;;
53927;SDS011;39837;47.630;18.822;2023-02-03T10:07:01;2.47;;;2.28;;
53927;SDS011;39837;47.630;18.822;2023-02-03T10:10:10;2.28;;;2.10;;
53927;SDS011;39837;47.630;18.822;2023-02-03T10:15:52;1.85;;;1.75;;
53927;SDS011;39837;47.630;18.822;2023-02-03T10:18:49;11.60;;;8.40;;
53927;SDS011;39837;47.630;18.822;2023-02-03T10:21:39;5.18;;;3.15;;
53927;SDS011;39837;47.630;18.822;2023-02-03T10:24:31;2.78;;;2.58;;
53927;SDS011;39837;47.630;18.822;2023-02-03T10:27:22;3.08;;;2.67;;
53927;SDS011;39837;47.630;18.822;2023-02-03T10:30:24;4.20;;;2.53;;
53927;SDS011;39837;47.630;18.822;2023-02-03T10:33:14;3.13;;;2.90;;
53927;SDS011;39837;47.630;18.822;2023-02-03T10:42:08;1.92;;;1.83;;
53927;SDS011;39837;47.630;18.822;2023-02-03T10:47:42;2.17;;;1.83;;
53927;SDS011;39837;47.630;18.822;2023-02-03T10:50:29;3.15;;;2.95;;
53927;SDS011;39837;47.630;18.822;2023-02-03T10:56:15;1.30;;;1.30;;
53927;SDS011;39837;47.630;18.822;2023-02-03T10:59:00;1.83;;;1.70;;
53927;SDS011;39837;47.630;18.822;2023-02-03T11:01:46;2.08;;;2.00;;
53927;SDS011;39837;47.630;18.822;2023-02-03T11:04:32;2.38;;;2.28;;
53927;SDS011;39837;47.630;18.822;2023-02-03T11:07:24;1.58;;;1.48;;
53927;SDS011;39837;47.630;18.822;2023-02-03T11:16:14;1.65;;;1.52;;
53927;SDS011;39837;47.630;18.822;2023-02-03T11:19:00;2.47;;;2.25;;
53927;SDS011;39837;47.630;18.822;2023-02-03T11:21:50;1.25;;;1.25;;
53927;SDS011;39837;47.630;18.822;2023-02-03T11:24:38;0.93;;;0.93;;
53927;SDS011;39837;47.630;18.822;2023-02-03T11:27:23;1.27;;;1.27;;
53927;SDS011;39837;47.630;18.822;2023-02-03T11:30:13;0.80;;;0.80;;
53927;SDS011;39837;47.630;18.822;2023-02-03T11:32:59;0.93;;;0.93;;
53927;SDS011;39837;47.630;18.822;2023-02-03T11:36:05;0.80;;;0.80;;
53927;SDS011;39837;47.630;18.822;2023-02-03T11:38:49;0.60;;;0.60;;
53927;SDS011;39837;47.630;18.822;2023-02-03T11:41:35;1.00;;;1.00;;
53927;SDS011;39837;47.630;18.822;2023-02-03T11:44:21;0.60;;;0.60;;
53927;SDS011;39837;47.630;18.822;2023-02-03T11:47:11;2.13;;;2.03;;
53927;SDS011;39837;47.630;18.822;2023-02-03T11:52:53;1.42;;;1.42;;
53927;SDS011;39837;47.630;18.822;2023-02-03T11:59:10;0.90;;;0.90;;
53927;SDS011;39837;47.630;18.822;2023-02-03T12:11:22;0.80;;;0.80;;
53927;SDS011;39837;47.630;18.822;2023-02-03T12:17:35;0.88;;;0.88;;
53927;SDS011;39837;47.630;18.822;2023-02-03T12:28:45;0.90;;;0.90;;
53927;SDS011;39837;47.630;18.822;2023-02-03T12:34:21;1.13;;;1.05;;
53927;SDS011;39837;47.630;18.822;2023-02-03T12:37:07;0.88;;;0.88;;
53927;SDS011;39837;47.630;18.822;2023-02-03T12:40:44;1.15;;;1.15;;
53927;SDS011;39837;47.630;18.822;2023-02-03T12:46:29;0.80;;;0.80;;
53927;SDS011;39837;47.630;18.822;2023-02-03T12:52:16;1.27;;;1.27;;
53927;SDS011;39837;47.630;18.822;2023-02-03T12:58:22;1.17;;;1.17;;
53927;SDS011;39837;47.630;18.822;2023-02-03T13:01:12;1.17;;;1.17;;
53927;SDS011;39837;47.630;18.822;2023-02-03T13:04:22;1.63;;;1.55;;
53927;SDS011;39837;47.630;18.822;2023-02-03T13:13:02;1.40;;;1.40;;
53927;SDS011;39837;47.630;18.822;2023-02-03T13:15:50;4.47;;;2.00;;
53927;SDS011;39837;47.630;18.822;2023-02-03T13:18:36;1.52;;;1.52;;
53927;SDS011;39837;47.630;18.822;2023-02-03T13:21:21;1.30;;;1.30;;
53927;SDS011;39837;47.630;18.822;2023-02-03T13:24:06;2.17;;;2.08;;
53927;SDS011;39837;47.630;18.822;2023-02-03T13:29:55;7.10;;;5.15;;
53927;SDS011;39837;47.630;18.822;2023-02-03T13:35:50;7.55;;;3.13;;
53927;SDS011;39837;47.630;18.822;2023-02-03T13:42:28;2.38;;;2.28;;
53927;SDS011;39837;47.630;18.822;2023-02-03T13:45:36;2.33;;;2.05;;
53927;SDS011;39837;47.630;18.822;2023-02-03T13:48:24;2.20;;;2.10;;
53927;SDS011;39837;47.630;18.822;2023-02-03T13:51:14;6.65;;;2.30;;
53927;SDS011;39837;47.630;18.822;2023-02-03T13:54:11;1.80;;;1.80;;
53927;SDS011;39837;47.630;18.822;2023-02-03T13:57:01;1.48;;;1.48;;
53927;SDS011;39837;47.630;18.822;2023-02-03T13:59:50;2.05;;;1.85;;
53927;SDS011;39837;47.630;18.822;2023-02-03T14:02:44;1.63;;;1.52;;
53927;SDS011;39837;47.630;18.822;2023-02-03T14:05:40;2.70;;;2.28;;
53927;SDS011;39837;47.630;18.822;2023-02-03T14:17:03;3.37;;;3.13;;
53927;SDS011;39837;47.630;18.822;2023-02-03T14:22:34;2.65;;;2.45;;
53927;SDS011;39837;47.630;18.822;2023-02-03T14:25:21;2.30;;;2.15;;
53927;SDS011;39837;47.630;18.822;2023-02-03T14:28:11;3.00;;;2.80;;
53927;SDS011;39837;47.630;18.822;2023-02-03T14:31:05;2.33;;;2.22;;
53927;SDS011;39837;47.630;18.822;2023-02-03T14:34:11;2.60;;;2.33;;
53927;SDS011;39837;47.630;18.822;2023-02-03T14:36:56;1.88;;;1.73;;
53927;SDS011;39837;47.630;18.822;2023-02-03T14:46:20;6.13;;;2.25;;
53927;SDS011;39837;47.630;18.822;2023-02-03T14:49:52;2.03;;;1.92;;
53927;SDS011;39837;47.630;18.822;2023-02-03T14:53:00;9.10;;;3.05;;
53927;SDS011;39837;47.630;18.822;2023-02-03T14:59:08;2.38;;;2.17;;
53927;SDS011;39837;47.630;18.822;2023-02-03T15:04:46;3.42;;;1.95;;
53927;SDS011;39837;47.630;18.822;2023-02-03T15:07:37;1.80;;;1.70;;
53927;SDS011;39837;47.630;18.822;2023-02-03T15:10:45;2.78;;;2.58;;
53927;SDS011;39837;47.630;18.822;2023-02-03T15:13:29;2.00;;;1.90;;
53927;SDS011;39837;47.630;18.822;2023-02-03T15:16:17;2.08;;;1.95;;
53927;SDS011;39837;47.630;18.822;2023-02-03T15:19:13;6.25;;;5.50;;
53927;SDS011;39837;47.630;18.822;2023-02-03T15:22:00;4.30;;;2.70;;
53927;SDS011;39837;47.630;18.822;2023-02-03T15:24:44;3.97;;;3.63;;
53927;SDS011;39837;47.630;18.822;2023-02-03T15:27:29;2.65;;;2.13;;
53927;SDS011;39837;47.630;18.822;2023-02-03T15:30:19;8.48;;;6.38;;
53927;SDS011;39837;47.630;18.822;2023-02-03T15:33:10;1.63;;;1.60;;
53927;SDS011;39837;47.630;18.822;2023-02-03T15:36:04;1.40;;;1.30;;
53927;SDS011;39837;47.630;18.822;2023-02-03T15:38:54;1.42;;;1.42;;
53927;SDS011;39837;47.630;18.822;2023-02-03T15:41:43;1.80;;;1.70;;
53927;SDS011;39837;47.630;18.822;2023-02-03T15:44:31;1.70;;;1.70;;
53927;SDS011;39837;47.630;18.822;2023-02-03T15:47:22;1.10;;;1.10;;
53927;SDS011;39837;47.630;18.822;2023-02-03T15:53:44;1.83;;;1.73;;
53927;SDS011;39837;47.630;18.822;2023-02-03T15:59:19;3.33;;;1.70;;
53927;SDS011;39837;47.630;18.822;2023-02-03T16:02:06;1.25;;;1.25;;
53927;SDS011;39837;47.630;18.822;2023-02-03T16:04:54;1.40;;;1.30;;
53927;SDS011;39837;47.630;18.822;2023-02-03T16:07:39;1.27;;;1.27;;
53927;SDS011;39837;47.630;18.822;2023-02-03T16:10:26;1.60;;;1.60;;
53927;SDS011;39837;47.630;18.822;2023-02-03T16:13:18;2.28;;;2.17;;
53927;SDS011;39837;47.630;18.822;2023-02-03T16:16:12;1.20;;;1.20;;
53927;SDS011;39837;47.630;18.822;2023-02-03T16:18:59;6.70;;;1.80;;
53927;SDS011;39837;47.630;18.822;2023-02-03T16:24:36;1.42;;;1.42;;
53927;SDS011;39837;47.630;18.822;2023-02-03T16:27:29;1.15;;;1.15;;
53927;SDS011;39837;47.630;18.822;2023-02-03T16:30:21;1.02;;;1.02;;
53927;SDS011;39837;47.630;18.822;2023-02-03T16:33:25;1.13;;;1.13;;
53927;SDS011;39837;47.630;18.822;2023-02-03T16:36:37;0.90;;;0.90;;
53927;SDS011;39837;47.630;18.822;2023-02-03T16:39:41;1.25;;;1.25;;
53927;SDS011;39837;47.630;18.822;2023-02-03T16:42:44;1.63;;;1.52;;
53927;SDS011;39837;47.630;18.822;2023-02-03T16:45:52;1.42;;;1.33;;
53927;SDS011;39837;47.630;18.822;2023-02-03T16:48:56;1.27;;;1.27;;
53927;SDS011;39837;47.630;18.822;2023-02-03T16:51:59;0.90;;;0.90;;
53927;SDS011;39837;47.630;18.822;2023-02-03T16:54:44;0.73;;;0.73;;
53927;SDS011;39837;47.630;18.822;2023-02-03T16:57:28;1.10;;;1.10;;
53927;SDS011;39837;47.630;18.822;2023-02-03T17:00:12;1.00;;;1.00;;
53927;SDS011;39837;47.630;18.822;2023-02-03T17:02:57;1.05;;;0.90;;
53927;SDS011;39837;47.630;18.822;2023-02-03T17:05:41;0.90;;;0.90;;
53927;SDS011;39837;47.630;18.822;2023-02-03T17:08:27;2.20;;;1.25;;
53927;SDS011;39837;47.630;18.822;2023-02-03T17:11:13;1.10;;;1.10;;
53927;SDS011;39837;47.630;18.822;2023-02-03T17:13:59;1.00;;;1.00;;
53927;SDS011;39837;47.630;18.822;2023-02-03T17:16:43;0.88;;;0.88;;
53927;SDS011;39837;47.630;18.822;2023-02-03T17:19:27;0.80;;;0.80;;
53927;SDS011;39837;47.630;18.822;2023-02-03T17:22:11;1.20;;;1.20;;
53927;SDS011;39837;47.630;18.822;2023-02-03T17:24:57;1.30;;;1.30;;
53927;SDS011;39837;47.630;18.822;2023-02-03T17:27:41;1.30;;;1.30;;
53927;SDS011;39837;47.630;18.822;2023-02-03T17:30:26;1.48;;;1.48;;
53927;SDS011;39837;47.630;18.822;2023-02-03T17:33:11;1.40;;;1.30;;
53927;SDS011;39837;47.630;18.822;2023-02-03T17:38:48;1.17;;;1.17;;
53927;SDS011;39837;47.630;18.822;2023-02-03T17:41:34;1.83;;;1.73;;
53927;SDS011;39837;47.630;18.822;2023-02-03T17:44:19;1.90;;;1.80;;
53927;SDS011;39837;47.630;18.822;2023-02-03T17:47:03;1.23;;;1.23;;
53927;SDS011;39837;47.630;18.822;2023-02-03T17:49:47;1.63;;;1.52;;
53927;SDS011;39837;47.630;18.822;2023-02-03T17:52:32;1.33;;;1.33;;
53927;SDS011;39837;47.630;18.822;2023-02-03T17:55:16;2.47;;;1.27;;
53927;SDS011;39837;47.630;18.822;2023-02-03T17:58:01;1.75;;;1.65;;
53927;SDS011;39837;47.630;18.822;2023-02-03T18:00:45;1.55;;;1.55;;
53927;SDS011;39837;47.630;18.822;2023-02-03T18:03:29;1.40;;;1.30;;
53927;SDS011;39837;47.630;18.822;2023-02-03T18:06:14;1.30;;;1.30;;
53927;SDS011;39837;47.630;18.822;2023-02-03T18:09:00;1.73;;;1.63;;
53927;SDS011;39837;47.630;18.822;2023-02-03T18:11:46;1.23;;;1.23;;
53927;SDS011;39837;47.630;18.822;2023-02-03T18:14:30;1.00;;;1.00;;
53927;SDS011;39837;47.630;18.822;2023-02-03T18:17:18;1.30;;;1.30;;
53927;SDS011;39837;47.630;18.822;2023-02-03T18:20:02;1.42;;;1.42;;
53927;SDS011;39837;47.630;18.822;2023-02-03T18:22:46;1.58;;;1.52;;
53927;SDS011;39837;47.630;18.822;2023-02-03T18:25:33;2.83;;;1.70;;
53927;SDS011;39837;47.630;18.822;2023-02-03T18:28:18;1.95;;;1.85;;
53927;SDS011;39837;47.630;18.822;2023-02-03T18:31:05;1.58;;;1.58;;
53927;SDS011;39837;47.630;18.822;2023-02-03T18:33:52;1.63;;;1.52;;
53927;SDS011;39837;47.630;18.822;2023-02-03T18:36:37;1.77;;;1.77;;
53927;SDS011;39837;47.630;18.822;2023-02-03T18:39:21;1.30;;;1.23;;
53927;SDS011;39837;47.630;18.822;2023-02-03T18:42:06;1.27;;;1.27;;
53927;SDS011;39837;47.630;18.822;2023-02-03T18:44:50;0.95;;;0.95;;
53927;SDS011;39837;47.630;18.822;2023-02-03T18:47:35;0.82;;;0.82;;